Hauula, HI (96717)

1:41 AM HST on August 27, 2016 (GMT -1000)
Mililani Mauka | | Change Station

Elev 961 ft 21.48 °N, 157.99 °W | Updated 26 seconds ago

Rain
Rain
69.8 °F
Feels Like 69.8 °F
N
2.0
Wind Variable Wind from North

Today
High -- | Low -- °F
--% Chance of Precip.
Yesterday
High -- | Low -- °F
Precip. -- in
Pressure 30.01 in
Visibility 10.0 miles
Clouds Clear
Dew Point 69 °F
Humidity 98%
Rainfall 0.04 in
Snow Depth Not available.
6:13 AM 6:51 PM
Waning Crescent, 25% visible
METAR PHHI 271058Z AUTO 31005KT 10SM CLR 21/20 A3004 RMK AO2 DZE16 SLP161 P0000 T02130203 $
Pressure 30.01 in
Visibility 10.0 miles
Clouds Clear
Dew Point 69 °F
Humidity 98%
Rainfall 0.04 in
Snow Depth Not available.
6:13 AM 6:51 PM
Waning Crescent, 25% visible
METAR PHHI 271058Z AUTO 31005KT 10SM CLR 21/20 A3004 RMK AO2 DZE16 SLP161 P0000 T02130203 $

10-Day Weather Forecast

Almanac

Astronomy

Aug. 27, 2016 Rise Set
Actual Time
Civil Twilight
Nautical Twilight
Astronomical Twilight
Moon
Length of Visible Light
Length of Day
Tomorrow will be .
, % of the Moon is Illuminated

Today's Extremes

State Highs State Lows

Community

WunderPhotos

Upload Photos

1,935,325 photos uploaded!

WunderBlog® & News

Nearby

Air Quality

  Air Quality AQ Index Pollutant
Not available.

Snow Depth

Station Depth Elevation

Earthquake Activity

City Distance Mag. Time & Date
Minimum magnitude displayed is 2.5.

Coastal Water Temperatures

Place Temperature

Stations

Nearby Weather Stations

Station Location Temp. Windchill Dew Point Humidity Wind Precip. Elev Updated Type
                   

Watches & Warnings

There are currently no watches in effect.